createdAt,value
2022-10-11T00:00:48.229Z,17.25
2022-10-11T00:02:56.708Z,11.38
2022-10-11T00:05:03.684Z,13.48
2022-10-11T00:07:10.815Z,11.52
2022-10-11T00:09:17.791Z,11.07
2022-10-11T00:11:24.973Z,10.13
2022-10-11T00:13:31.853Z,10.13
2022-10-11T00:15:38.825Z,10.50
2022-10-11T00:17:46.110Z,10.35
2022-10-11T00:19:54.674Z,10.00
2022-10-11T00:22:01.904Z,11.63
2022-10-11T00:24:09.343Z,8.90
2022-10-11T00:26:16.472Z,8.77
2022-10-11T00:28:23.325Z,8.82
2022-10-11T00:30:30.427Z,8.13
2022-10-11T00:32:37.817Z,8.43
2022-10-11T00:34:45.098Z,7.90
2022-10-11T00:36:53.712Z,6.78
2022-10-11T00:39:02.024Z,6.25
2022-10-11T00:41:09.253Z,7.40
2022-10-11T00:43:19.764Z,7.35
2022-10-11T00:46:05.242Z,9.50
2022-10-11T00:48:23.795Z,8.43
2022-10-11T00:50:34.097Z,7.97
2022-10-11T00:52:46.865Z,6.65
2022-10-11T00:54:56.857Z,7.60
2022-10-11T00:57:06.648Z,9.90
2022-10-11T00:59:18.591Z,6.97
2022-10-11T01:03:34.185Z,5.82
2022-10-11T01:05:43.056Z,8.40
2022-10-11T01:07:53.004Z,7.07
2022-10-11T01:09:59.977Z,7.15
2022-10-11T01:12:14.942Z,7.68
2022-10-11T01:14:56.735Z,7.28
2022-10-11T01:17:11.085Z,7.88
2022-10-11T01:19:36.548Z,6.75
2022-10-11T01:21:50.689Z,7.78
2022-10-11T01:24:27.158Z,5.53
2022-10-11T01:27:07.673Z,6.00
2022-10-11T01:29:28.932Z,6.70
2022-10-11T01:31:43.846Z,7.40
2022-10-11T01:33:56.146Z,6.78
2022-10-11T01:36:12.646Z,5.43
2022-10-11T01:38:26.384Z,6.28
2022-10-11T01:40:37.813Z,7.30
2022-10-11T01:42:46.174Z,8.20
2022-10-11T01:44:55.145Z,7.03
2022-10-11T01:47:03.761Z,10.05
2022-10-11T01:49:11.198Z,5.93
2022-10-11T01:51:18.073Z,6.80
2022-10-11T01:54:00.941Z,8.35
2022-10-11T01:56:20.516Z,7.32
2022-10-11T01:58:42.602Z,8.02
2022-10-11T02:00:57.510Z,8.35
2022-10-11T02:03:23.020Z,7.55
2022-10-11T02:05:38.705Z,7.15
2022-10-11T02:07:48.901Z,7.20
2022-10-11T02:10:00.691Z,8.25
2022-10-11T02:12:12.689Z,7.90
2022-10-11T02:14:23.660Z,6.90
2022-10-11T02:16:34.422Z,7.82
2022-10-11T02:18:48.668Z,6.38
2022-10-11T02:20:56.931Z,7.53
2022-10-11T02:23:08.870Z,8.63
2022-10-11T02:25:20.403Z,6.25
2022-10-11T02:27:31.169Z,6.53
2022-10-11T02:29:42.857Z,6.80
2022-10-11T02:31:51.624Z,7.28
2022-10-11T02:34:03.568Z,7.68
2022-10-11T02:36:16.228Z,8.20
2022-10-11T02:38:26.686Z,5.70
2022-10-11T02:40:36.683Z,7.93
2022-10-11T02:42:48.268Z,8.95
2022-10-11T02:47:08.418Z,7.85
2022-10-11T02:49:17.903Z,6.13
2022-10-11T02:51:24.829Z,6.30
2022-10-11T02:53:32.062Z,5.95
2022-10-11T02:55:39.038Z,6.10
2022-10-11T02:57:45.760Z,7.63
2022-10-11T02:59:52.738Z,6.68
2022-10-11T03:02:00.309Z,6.22
2022-10-11T03:04:07.201Z,7.50
2022-10-11T03:06:16.074Z,7.05
2022-10-11T03:08:23.254Z,7.35
2022-10-11T03:10:30.591Z,6.57
2022-10-11T03:12:37.568Z,7.30
2022-10-11T03:14:44.598Z,7.60
2022-10-11T03:16:51.658Z,6.68
2022-10-11T03:18:58.755Z,6.78
2022-10-11T03:21:05.678Z,5.85
2022-10-11T03:23:15.063Z,5.45
2022-10-11T03:25:22.193Z,5.93
2022-10-11T03:27:29.733Z,7.95
2022-10-11T03:29:36.764Z,6.90
2022-10-11T03:31:43.736Z,6.40
2022-10-11T03:33:50.714Z,6.60
2022-10-11T03:35:57.844Z,6.18
2022-10-11T03:38:04.822Z,7.18
2022-10-11T03:40:15.130Z,7.88
2022-10-11T03:42:22.003Z,7.85
2022-10-11T03:44:29.591Z,6.50
2022-10-11T03:46:36.978Z,6.53
2022-10-11T03:48:43.954Z,5.75
2022-10-11T03:50:51.549Z,6.60
2022-10-11T03:52:58.830Z,6.60
2022-10-11T03:55:05.909Z,5.55
2022-10-11T03:57:14.832Z,8.00
2022-10-11T03:59:21.708Z,5.95
2022-10-11T04:01:29.021Z,5.85
2022-10-11T04:03:35.916Z,7.43
2022-10-11T04:05:43.253Z,5.30
2022-10-11T04:07:50.484Z,5.07
2022-10-11T04:09:57.717Z,6.50
2022-10-11T04:12:04.797Z,5.72
2022-10-11T04:14:13.565Z,6.57
2022-10-11T04:16:20.236Z,4.45
2022-10-11T04:18:27.673Z,5.65
2022-10-11T04:20:34.649Z,6.32
2022-10-11T04:22:41.831Z,6.07
2022-10-11T04:24:48.808Z,5.30
2022-10-11T04:26:55.683Z,7.32
2022-10-11T04:29:02.505Z,5.80
2022-10-11T04:31:11.119Z,7.15
2022-10-11T04:33:17.840Z,6.20
2022-10-11T04:35:24.818Z,7.90
2022-10-11T04:37:31.593Z,5.53
2022-10-11T04:39:39.182Z,6.20
2022-10-11T04:41:46.055Z,5.20
2022-10-11T04:43:53.032Z,7.13
2022-10-11T04:45:59.863Z,6.97
2022-10-11T04:48:09.033Z,6.05
2022-10-11T04:50:15.907Z,5.78
2022-10-11T04:52:25.677Z,7.32
2022-10-11T04:54:32.985Z,5.95
2022-10-11T04:56:40.166Z,5.80
2022-10-11T04:58:49.039Z,5.40
2022-10-11T05:00:55.861Z,6.38
2022-10-11T05:03:02.788Z,7.28
2022-10-11T05:05:12.476Z,7.63
2022-10-11T05:07:19.403Z,5.72
2022-10-11T05:09:26.330Z,5.60
2022-10-11T05:11:33.320Z,5.47
2022-10-11T05:13:40.845Z,5.35
2022-10-11T05:15:47.822Z,6.32
2022-10-11T05:17:54.748Z,4.70
2022-10-11T05:20:01.576Z,5.53
2022-10-11T05:22:09.982Z,6.57
2022-10-11T05:24:16.754Z,7.22
2022-10-11T05:26:24.653Z,6.22
2022-10-11T05:28:32.297Z,6.50
2022-10-11T05:30:39.271Z,7.10
2022-10-11T05:32:46.609Z,5.75
2022-10-11T05:34:53.480Z,4.93
2022-10-11T05:37:00.612Z,5.35
2022-10-11T05:39:09.329Z,5.80
2022-10-11T05:41:17.995Z,6.70
2022-10-11T05:43:24.766Z,6.97
2022-10-11T05:45:33.280Z,7.93
2022-10-11T05:47:40.205Z,7.65
2022-10-11T05:49:47.133Z,5.95
2022-10-11T05:51:54.313Z,7.07
2022-10-11T05:54:01.392Z,5.35
2022-10-11T05:56:22.502Z,6.57
2022-10-11T05:58:29.631Z,6.65
2022-10-11T06:00:39.528Z,6.90
2022-10-11T06:02:46.246Z,5.88
2022-10-11T06:04:53.582Z,7.10
2022-10-11T06:07:00.558Z,5.90
2022-10-11T06:09:07.842Z,8.50
2022-10-11T06:11:18.968Z,5.18
2022-10-11T06:13:26.506Z,6.22
2022-10-11T06:15:33.382Z,5.68
2022-10-11T06:17:40.512Z,6.00
2022-10-11T06:19:47.181Z,5.35
2022-10-11T06:21:54.569Z,5.45
2022-10-11T06:24:03.405Z,6.38
2022-10-11T06:26:11.952Z,5.90
2022-10-11T06:28:20.598Z,8.23
2022-10-11T06:30:27.434Z,6.07
2022-10-11T06:32:34.932Z,5.70
2022-10-11T06:34:42.112Z,4.70
2022-10-11T06:36:48.987Z,6.68
2022-10-11T06:38:56.731Z,5.28
2022-10-11T06:41:14.052Z,5.53
2022-10-11T06:43:22.971Z,5.97
2022-10-11T06:45:29.796Z,5.95
2022-10-11T06:47:37.183Z,5.07
2022-10-11T06:49:44.364Z,5.47
2022-10-11T06:51:51.709Z,6.18
2022-10-11T06:54:00.672Z,7.15
2022-10-11T06:56:08.673Z,5.95
2022-10-11T06:58:16.171Z,5.75
2022-10-11T07:00:24.828Z,5.93
2022-10-11T07:02:31.660Z,9.25
2022-10-11T07:04:38.679Z,5.20
2022-10-11T07:06:45.862Z,6.07
2022-10-11T07:08:53.094Z,6.03
2022-10-11T07:11:04.372Z,5.63
2022-10-11T07:13:17.003Z,5.70
2022-10-11T07:15:26.265Z,5.88
2022-10-11T07:17:33.187Z,6.72
2022-10-11T07:19:40.223Z,8.20
2022-10-11T07:21:47.610Z,8.70
2022-10-11T07:23:55.104Z,5.95
2022-10-11T07:26:03.653Z,5.35
2022-10-11T07:28:10.770Z,6.78
2022-10-11T07:30:17.916Z,5.13
2022-10-11T07:32:26.888Z,5.40
2022-10-11T07:34:33.976Z,5.65
2022-10-11T07:36:41.356Z,6.15
2022-10-11T07:38:51.152Z,5.97
2022-10-11T07:40:58.842Z,7.72
2022-10-11T07:43:08.234Z,4.88
2022-10-11T07:45:15.817Z,5.88
2022-10-11T07:49:44.825Z,8.23
2022-10-11T07:51:51.953Z,5.50
2022-10-11T07:54:03.377Z,6.25
2022-10-11T07:56:14.920Z,6.43
2022-10-11T07:58:21.894Z,7.07
2022-10-11T08:00:29.204Z,6.75
2022-10-11T08:02:36.572Z,6.22
2022-10-11T08:04:45.334Z,5.43
2022-10-11T08:06:53.437Z,6.85
2022-10-11T08:09:02.461Z,5.93
2022-10-11T08:11:09.695Z,6.63
2022-10-11T08:13:16.672Z,5.18
2022-10-11T08:15:24.262Z,6.28
2022-10-11T08:17:32.522Z,9.70
2022-10-11T08:19:39.548Z,5.60
2022-10-11T08:21:48.265Z,9.07
2022-10-11T08:23:55.260Z,5.45
2022-10-11T08:26:02.431Z,5.80
2022-10-11T08:28:10.713Z,6.53
2022-10-11T08:30:18.024Z,5.70
2022-10-11T08:32:25.042Z,7.10
2022-10-11T08:34:31.917Z,7.10
2022-10-11T08:36:39.764Z,5.97
2022-10-11T08:38:49.713Z,5.22
2022-10-11T08:40:58.890Z,5.07
2022-10-11T08:43:09.654Z,5.97
2022-10-11T08:45:30.507Z,6.85
2022-10-11T08:47:42.040Z,6.27
2022-10-11T08:49:49.026Z,9.20
2022-10-11T08:52:03.367Z,6.05
2022-10-11T08:54:19.511Z,6.55
2022-10-11T08:56:29.457Z,7.05
2022-10-11T08:58:42.730Z,9.23
2022-10-11T09:00:52.369Z,6.72
2022-10-11T09:03:08.880Z,9.77
2022-10-11T09:05:20.044Z,7.30
2022-10-11T09:07:42.586Z,6.95
2022-10-11T09:10:05.743Z,7.88
2022-10-11T09:12:21.737Z,6.13
2022-10-11T09:14:59.017Z,8.63
2022-10-11T09:17:12.701Z,6.40
2022-10-11T09:19:44.817Z,6.53
2022-10-11T09:21:59.320Z,7.60
2022-10-11T09:24:40.152Z,8.13
2022-10-11T09:26:57.358Z,8.45
2022-10-11T09:29:13.859Z,7.32
2022-10-11T09:31:20.681Z,8.18
2022-10-11T09:33:36.414Z,8.73
2022-10-11T09:35:46.311Z,6.18
2022-10-11T09:38:00.760Z,8.25
2022-10-11T09:40:20.285Z,7.60
2022-10-11T09:42:29.050Z,8.70
2022-10-11T09:44:39.458Z,7.25
2022-10-11T09:46:47.766Z,8.35
2022-10-11T09:48:57.664Z,5.75
2022-10-11T09:51:10.269Z,9.35
2022-10-11T09:53:17.354Z,8.48
2022-10-11T09:55:39.839Z,8.32
2022-10-11T09:57:58.234Z,6.07
2022-10-11T10:00:09.669Z,7.55
2022-10-11T10:02:24.886Z,8.75
2022-10-11T10:04:31.760Z,12.20
2022-10-11T10:06:39.660Z,9.25
2022-10-11T10:08:48.324Z,7.93
2022-10-11T10:11:03.901Z,7.15
2022-10-11T10:13:24.501Z,7.57
2022-10-11T10:15:34.700Z,6.53
2022-10-11T10:17:42.447Z,8.73
2022-10-11T10:19:53.878Z,7.30
2022-10-11T10:22:01.060Z,8.02
2022-10-11T10:24:11.877Z,7.28
2022-10-11T10:26:22.488Z,10.37
2022-10-11T10:28:31.882Z,17.77
2022-10-11T10:30:38.798Z,19.95
2022-10-11T10:32:52.072Z,18.95
2022-10-11T10:35:05.959Z,16.38
2022-10-11T10:37:30.248Z,14.30
2022-10-11T10:39:43.832Z,12.43
2022-10-11T10:41:51.568Z,13.55
2022-10-11T10:44:02.590Z,10.88
2022-10-11T10:46:36.913Z,9.95
2022-10-11T10:51:27.470Z,10.73
2022-10-11T10:53:40.695Z,8.25
2022-10-11T10:55:50.538Z,12.02
2022-10-11T10:58:18.883Z,9.93
2022-10-11T11:00:28.197Z,10.10
2022-10-11T11:02:43.120Z,12.05
2022-10-11T11:04:54.181Z,10.57
2022-10-11T11:07:07.407Z,14.05
2022-10-11T11:09:27.900Z,11.20
2022-10-11T11:11:50.032Z,10.38
2022-10-11T11:14:03.459Z,12.35
2022-10-11T11:16:21.803Z,10.02
2022-10-11T11:18:37.483Z,10.80
2022-10-11T11:20:55.366Z,12.25
2022-10-11T11:23:11.297Z,10.20
2022-10-11T11:25:29.939Z,15.25
2022-10-11T11:27:54.032Z,12.38
2022-10-11T11:30:07.769Z,14.25
2022-10-11T11:32:26.622Z,11.57
2022-10-11T11:34:39.846Z,13.90
2022-10-11T11:36:50.151Z,12.52
2022-10-11T11:39:04.857Z,10.90
2022-10-11T11:41:16.596Z,10.27
2022-10-11T11:43:26.938Z,10.23
2022-10-11T11:45:40.382Z,11.73
2022-10-11T11:47:55.599Z,11.95
2022-10-11T11:50:05.114Z,11.95
2022-10-11T11:52:17.387Z,14.13
2022-10-11T11:54:38.906Z,13.63
2022-10-11T12:01:27.608Z,14.02
2022-10-11T12:03:44.139Z,14.30
2022-10-11T12:06:26.090Z,15.65
2022-10-11T12:08:36.697Z,17.38
2022-10-11T12:10:58.881Z,17.65
2022-10-11T12:13:22.189Z,17.95
2022-10-11T12:15:30.241Z,19.90
2022-10-11T12:17:37.517Z,16.98
2022-10-11T12:20:01.854Z,18.23
2022-10-11T12:22:39.557Z,17.80
2022-10-11T12:24:57.951Z,15.93
2022-10-11T12:27:42.305Z,17.45
2022-10-11T12:29:53.477Z,21.05
2022-10-11T12:32:35.432Z,17.95
2022-10-11T12:34:46.090Z,15.30
2022-10-11T12:36:53.892Z,19.90
2022-10-11T12:39:34.296Z,18.45
2022-10-11T12:41:54.635Z,17.65
2022-10-11T12:44:24.550Z,16.55
2022-10-11T12:47:03.825Z,13.55
2022-10-11T12:49:40.955Z,14.20
2022-10-11T12:52:00.130Z,15.35
2022-10-11T12:54:36.119Z,19.48
2022-10-11T12:56:51.869Z,20.75
2022-10-11T12:59:07.243Z,19.80
2022-10-11T13:01:25.121Z,16.67
2022-10-11T13:03:33.896Z,16.45
2022-10-11T13:05:52.456Z,17.95
2022-10-11T13:08:06.180Z,16.08
2022-10-11T13:10:18.581Z,19.35
2022-10-11T13:12:26.991Z,18.40
2022-10-11T13:14:38.066Z,18.85
2022-10-11T13:16:59.224Z,20.15
2022-10-11T13:19:09.697Z,19.50
2022-10-11T13:21:23.200Z,18.25
2022-10-11T13:23:39.868Z,18.77
2022-10-11T13:25:47.151Z,22.25
2022-10-11T13:27:56.587Z,21.77
2022-10-11T13:30:05.048Z,21.02
2022-10-11T13:32:17.351Z,18.55
2022-10-11T13:34:26.119Z,18.95
2022-10-11T13:36:33.403Z,21.60
2022-10-11T13:38:42.426Z,20.45
2022-10-11T13:40:51.159Z,21.70
2022-10-11T13:42:58.792Z,19.17
2022-10-11T13:45:08.016Z,21.42
2022-10-11T13:47:17.143Z,18.42
2022-10-11T13:49:38.507Z,25.75
2022-10-11T13:51:45.742Z,22.05
2022-10-11T13:54:05.620Z,19.80
2022-10-11T13:56:13.575Z,22.80
2022-10-11T13:58:28.892Z,25.00
2022-10-11T14:00:39.248Z,19.05
2022-10-11T14:02:52.825Z,21.48
2022-10-11T14:05:00.165Z,23.92
2022-10-11T14:07:10.361Z,24.67
2022-10-11T14:09:29.888Z,27.45
2022-10-11T14:11:39.424Z,29.48
2022-10-11T14:13:47.120Z,29.48
2022-10-11T14:16:04.013Z,40.10
2022-10-11T14:18:35.173Z,46.45
2022-10-11T14:20:43.530Z,49.03
2022-10-11T14:22:50.666Z,40.58
2022-10-11T14:24:59.277Z,28.67
2022-10-11T14:27:09.326Z,24.50
2022-10-11T14:29:24.096Z,24.65
2022-10-11T14:31:31.421Z,24.75
2022-10-11T14:33:38.451Z,26.40
2022-10-11T14:35:45.737Z,27.15
2022-10-11T14:37:53.271Z,22.95
2022-10-11T14:40:02.399Z,27.30
2022-10-11T14:42:09.275Z,24.77
2022-10-11T14:44:17.889Z,26.33
2022-10-11T14:46:28.096Z,25.27
2022-10-11T14:48:54.504Z,22.83
2022-10-11T14:51:04.368Z,23.42
2022-10-11T14:53:13.496Z,26.60
2022-10-11T14:55:22.522Z,23.77
2022-10-11T14:57:29.293Z,24.25
2022-10-11T14:59:37.616Z,22.48
2022-10-11T15:01:44.688Z,20.85
2022-10-11T15:03:51.657Z,22.73
2022-10-11T15:05:59.006Z,24.25
2022-10-11T15:08:10.628Z,22.45
2022-10-11T15:10:39.159Z,23.17
2022-10-11T15:12:46.139Z,19.58
2022-10-11T15:14:54.044Z,18.88
2022-10-11T15:17:00.961Z,19.85
2022-10-11T15:19:07.939Z,19.40
2022-10-11T15:21:27.782Z,20.42
2022-10-11T15:23:34.742Z,20.75
2022-10-11T15:25:44.793Z,17.35
2022-10-11T15:27:51.870Z,18.83
2022-10-11T15:29:58.644Z,18.35
2022-10-11T15:32:05.620Z,17.17
2022-10-11T15:34:12.391Z,15.98
2022-10-11T15:36:20.852Z,19.90
2022-10-11T15:38:28.904Z,18.88
2022-10-11T15:40:37.418Z,19.23
2022-10-11T15:42:45.995Z,17.90
2022-10-11T15:44:53.419Z,19.27
2022-10-11T15:47:00.196Z,18.75
2022-10-11T15:49:14.079Z,19.23
2022-10-11T15:51:21.161Z,17.35
2022-10-11T15:53:32.231Z,18.10
2022-10-11T15:55:41.410Z,20.00
2022-10-11T15:57:49.924Z,19.80
2022-10-11T15:59:56.798Z,17.73
2022-10-11T16:02:03.897Z,19.42
2022-10-11T16:04:10.804Z,19.85
2022-10-11T16:06:18.191Z,18.20
2022-10-11T16:08:25.067Z,21.40
2022-10-11T16:10:32.247Z,16.73
2022-10-11T16:12:39.325Z,18.50
2022-10-11T16:14:48.000Z,17.35
2022-10-11T16:16:54.865Z,18.60
2022-10-11T16:19:01.846Z,17.23
2022-10-11T16:21:11.228Z,16.98
2022-10-11T16:23:18.618Z,19.15
2022-10-11T16:25:26.409Z,19.45
2022-10-11T16:27:33.234Z,20.17
2022-10-11T16:29:40.106Z,18.58
2022-10-11T16:31:48.772Z,22.45
2022-10-11T16:33:56.209Z,16.50
2022-10-11T16:36:25.358Z,20.88
2022-10-11T16:38:35.515Z,19.67
2022-10-11T16:40:45.606Z,18.73
2022-10-11T16:43:07.648Z,18.25
2022-10-11T16:45:15.333Z,18.25
2022-10-11T16:47:23.986Z,17.52
2022-10-11T16:49:32.562Z,18.58
2022-10-11T16:51:39.435Z,16.13
2022-10-11T16:53:46.207Z,17.63
2022-10-11T16:55:53.287Z,15.75
2022-10-11T16:58:00.672Z,18.85
2022-10-11T17:00:09.647Z,18.52
2022-10-11T17:02:20.309Z,16.27
2022-10-11T17:04:28.874Z,17.83
2022-10-11T17:06:36.362Z,18.98
2022-10-11T17:08:43.288Z,19.00
2022-10-11T17:10:57.876Z,17.52
2022-10-11T17:13:04.820Z,17.63
2022-10-11T17:15:14.922Z,16.80
2022-10-11T17:17:22.153Z,18.92
2022-10-11T17:19:30.665Z,17.70
2022-10-11T17:21:37.488Z,18.20
2022-10-11T17:23:44.772Z,19.80
2022-10-11T17:25:51.595Z,18.92
2022-10-11T17:28:00.058Z,18.27
2022-10-11T17:30:07.239Z,16.83
2022-10-11T17:32:14.728Z,16.02
2022-10-11T17:34:21.909Z,18.02
2022-10-11T17:36:35.133Z,19.67
2022-10-11T17:38:45.130Z,18.27
2022-10-11T17:41:01.221Z,16.83
2022-10-11T17:43:08.045Z,14.70
2022-10-11T17:45:19.781Z,16.60
2022-10-11T17:47:27.680Z,17.45
2022-10-11T17:49:37.064Z,17.05
2022-10-11T17:51:46.401Z,18.58
2022-10-11T17:53:53.630Z,15.95
2022-10-11T17:56:00.657Z,17.63
2022-10-11T17:58:07.326Z,18.77
2022-10-11T18:00:15.686Z,19.67
2022-10-11T18:02:22.817Z,17.15
2022-10-11T18:04:31.072Z,17.92
2022-10-11T18:06:44.194Z,20.25
2022-10-11T18:08:53.272Z,18.75
2022-10-11T18:11:00.093Z,21.20
2022-10-11T18:13:11.980Z,18.30
2022-10-11T18:15:21.522Z,19.52
2022-10-11T18:17:34.028Z,20.35
2022-10-11T18:19:41.212Z,20.52
2022-10-11T18:21:48.698Z,18.75
2022-10-11T18:23:57.367Z,18.25
2022-10-11T18:26:12.902Z,18.55
2022-10-11T18:28:20.248Z,19.25
2022-10-11T18:30:27.256Z,18.25
2022-10-11T18:32:34.386Z,18.92
2022-10-11T18:34:41.311Z,23.55
2022-10-11T18:36:48.495Z,19.35
2022-10-11T18:38:59.975Z,16.45
2022-10-11T18:41:10.640Z,17.20
2022-10-11T18:43:17.668Z,19.33
2022-10-11T18:45:24.644Z,19.60
2022-10-11T18:47:31.674Z,14.38
2022-10-11T18:49:38.649Z,20.83
2022-10-11T18:51:48.953Z,19.15
2022-10-11T18:53:59.616Z,16.30
2022-10-11T18:56:08.218Z,19.20
2022-10-11T18:58:15.313Z,19.42
2022-10-11T19:00:40.051Z,19.30
2022-10-11T19:02:47.341Z,17.00
2022-10-11T19:04:55.390Z,19.15
2022-10-11T19:07:02.265Z,16.40
2022-10-11T19:09:12.930Z,17.33
2022-10-11T19:11:23.181Z,17.65
2022-10-11T19:13:30.059Z,18.25
2022-10-11T19:15:38.941Z,17.42
2022-10-11T19:17:45.750Z,17.67
2022-10-11T19:19:53.085Z,16.25
2022-10-11T19:22:00.267Z,18.42
2022-10-11T19:24:07.912Z,18.50
2022-10-11T19:26:18.782Z,16.65
2022-10-11T19:28:26.009Z,18.40
2022-10-11T19:30:34.678Z,18.00
2022-10-11T19:32:41.807Z,20.98
2022-10-11T19:34:48.835Z,18.25
2022-10-11T19:36:56.017Z,15.85
2022-10-11T19:39:02.791Z,17.17
2022-10-11T19:41:10.077Z,19.50
2022-10-11T19:43:18.791Z,19.45
2022-10-11T19:45:25.871Z,15.15
2022-10-11T19:47:33.148Z,18.02
2022-10-11T19:49:40.797Z,16.98
2022-10-11T19:51:47.673Z,14.85
2022-10-11T19:53:59.720Z,16.20
2022-10-11T19:58:13.619Z,16.48
2022-10-11T20:00:22.799Z,17.08
2022-10-11T20:02:30.031Z,15.85
2022-10-11T20:04:53.195Z,17.05
2022-10-11T20:07:00.268Z,16.38
2022-10-11T20:11:34.649Z,16.17
2022-10-11T20:13:42.344Z,16.90
2022-10-11T20:15:51.264Z,15.30
2022-10-11T20:17:58.292Z,15.45
2022-10-11T20:20:05.319Z,14.73
2022-10-11T20:22:12.091Z,16.27
2022-10-11T20:24:19.224Z,17.25
2022-10-11T20:26:26.967Z,16.85
2022-10-11T20:28:35.565Z,16.35
2022-10-11T20:30:46.198Z,16.10
2022-10-11T20:32:54.913Z,17.00
2022-10-11T20:35:01.788Z,15.40
2022-10-11T20:37:08.712Z,15.68
2022-10-11T20:39:16.304Z,15.50
2022-10-11T20:41:25.174Z,16.35
2022-10-11T20:43:32.048Z,17.02
2022-10-11T20:45:39.078Z,17.70
2022-10-11T20:47:45.798Z,16.30
2022-10-11T20:49:54.875Z,19.65
2022-10-11T20:52:02.005Z,17.77
2022-10-11T20:54:09.594Z,19.92
2022-10-11T20:56:18.579Z,15.77
2022-10-11T20:58:25.955Z,16.15
2022-10-11T21:00:32.626Z,15.75
2022-10-11T21:02:39.806Z,14.25
2022-10-11T21:04:46.834Z,16.13
2022-10-11T21:06:55.451Z,17.30
2022-10-11T21:09:02.733Z,18.92
2022-10-11T21:11:10.430Z,18.20
2022-10-11T21:13:17.353Z,18.60
2022-10-11T21:15:24.432Z,18.80
2022-10-11T21:17:31.357Z,17.33
2022-10-11T21:19:38.234Z,17.65
2022-10-11T21:21:49.516Z,17.80
2022-10-11T21:24:02.134Z,16.67
2022-10-11T21:26:10.736Z,16.42
2022-10-11T21:28:17.887Z,20.30
2022-10-11T21:30:24.791Z,16.65
2022-10-11T21:32:32.206Z,16.77
2022-10-11T21:34:39.258Z,18.27
2022-10-11T21:36:46.181Z,17.15
2022-10-11T21:38:54.255Z,17.92
2022-10-11T21:41:04.949Z,15.90
2022-10-11T21:43:11.822Z,16.30
2022-10-11T21:45:18.697Z,19.58
2022-10-11T21:47:25.417Z,18.80
2022-10-11T21:49:33.059Z,17.02
2022-10-11T21:51:40.036Z,18.83
2022-10-11T21:53:46.910Z,17.67
2022-10-11T21:55:59.111Z,14.98
2022-10-11T21:58:09.267Z,18.92
2022-10-11T22:00:17.109Z,17.23
2022-10-11T22:02:23.880Z,18.73
2022-10-11T22:04:31.011Z,16.95
2022-10-11T22:06:38.296Z,15.80
2022-10-11T22:08:45.476Z,18.83
2022-10-11T22:10:57.985Z,14.75
2022-10-11T22:13:06.495Z,15.57
2022-10-11T22:15:14.192Z,16.15
2022-10-11T22:17:21.012Z,17.23
2022-10-11T22:19:28.091Z,16.27
2022-10-11T22:21:34.967Z,14.40
2022-10-11T22:23:41.943Z,16.92
2022-10-11T22:25:49.278Z,18.02
2022-10-11T22:27:56.205Z,18.58
2022-10-11T22:30:04.819Z,15.95
2022-10-11T22:32:11.693Z,20.40
2022-10-11T22:34:18.722Z,17.15
2022-10-11T22:36:26.620Z,15.68
2022-10-11T22:38:33.699Z,18.33
2022-10-11T22:40:44.054Z,16.80
2022-10-11T22:42:51.340Z,15.68
2022-10-11T22:44:58.213Z,15.75
2022-10-11T22:47:07.033Z,15.40
2022-10-11T22:49:14.166Z,17.30
2022-10-11T22:51:20.938Z,18.35
2022-10-11T22:53:28.275Z,16.83
2022-10-11T22:55:35.200Z,14.23
2022-10-11T22:57:42.123Z,16.13
2022-10-11T22:59:48.894Z,18.13
2022-10-11T23:01:56.026Z,16.02
2022-10-11T23:04:04.517Z,14.18
2022-10-11T23:06:11.565Z,15.32
2022-10-11T23:08:18.337Z,19.33
2022-10-11T23:10:25.118Z,18.10
2022-10-11T23:12:31.935Z,19.92
2022-10-11T23:14:39.069Z,16.63
2022-10-11T23:16:46.040Z,18.73
2022-10-11T23:18:56.141Z,15.82
2022-10-11T23:21:06.292Z,18.73
2022-10-11T23:25:21.780Z,21.85
2022-10-11T23:27:28.760Z,21.48
2022-10-11T23:29:36.450Z,21.88
2022-10-11T23:31:43.222Z,21.88
2022-10-11T23:33:51.023Z,23.13
2022-10-11T23:35:57.893Z,23.73
2022-10-11T23:38:06.614Z,26.23
2022-10-11T23:40:14.048Z,23.50
2022-10-11T23:42:20.923Z,22.67
2022-10-11T23:44:27.746Z,25.40
2022-10-11T23:46:34.883Z,24.48
2022-10-11T23:48:41.495Z,24.10
2022-10-11T23:50:48.934Z,21.67
2022-10-11T23:52:55.653Z,21.20
2022-10-11T23:55:04.221Z,22.25
2022-10-11T23:57:11.142Z,21.08
2022-10-11T23:59:18.120Z,17.63
